createdAt,value
2017-11-27T00:01:35.022Z,1015.87
2017-11-27T00:03:36.497Z,1015.85
2017-11-27T00:05:38.015Z,1015.88
2017-11-27T00:07:39.767Z,1015.81
2017-11-27T00:09:41.887Z,1015.81
2017-11-27T00:11:44.008Z,1015.73
2017-11-27T00:13:45.868Z,1015.78
2017-11-27T00:15:47.976Z,1015.75
2017-11-27T00:17:50.125Z,1015.73
2017-11-27T00:19:51.875Z,1015.69
2017-11-27T00:21:53.659Z,1015.72
2017-11-27T00:23:55.395Z,1015.65
2017-11-27T00:25:57.275Z,1015.65
2017-11-27T00:27:59.078Z,1015.65
2017-11-27T00:30:00.905Z,1015.74
2017-11-27T00:32:03.101Z,1015.90
2017-11-27T00:34:04.749Z,1015.84
2017-11-27T00:36:06.889Z,1015.80
2017-11-27T00:38:09.019Z,1015.76
2017-11-27T00:40:10.689Z,1015.74
2017-11-27T00:42:12.623Z,1015.62
2017-11-27T00:44:14.364Z,1015.73
2017-11-27T00:46:16.560Z,1015.62
2017-11-27T00:48:18.303Z,1015.52
2017-11-27T00:50:20.575Z,1015.44
2017-11-27T00:52:22.836Z,1015.58
2017-11-27T00:54:24.626Z,1015.55
2017-11-27T00:56:26.823Z,1015.55
2017-11-27T00:58:28.971Z,1015.54
2017-11-27T01:00:30.607Z,1015.53
2017-11-27T01:03:13.046Z,1015.50
2017-11-27T01:05:14.513Z,1015.49
2017-11-27T01:07:20.179Z,1015.56
2017-11-27T01:09:21.701Z,1015.52
2017-11-27T01:11:23.365Z,1015.52
2017-11-27T01:13:25.525Z,1015.55
2017-11-27T01:15:27.622Z,1015.51
2017-11-27T01:17:29.464Z,1015.59
2017-11-27T01:20:15.864Z,1015.58
2017-11-27T01:22:17.369Z,1015.59
2017-11-27T01:24:18.962Z,1015.58
2017-11-27T01:26:20.544Z,1015.63
2017-11-27T01:28:22.233Z,1015.60
2017-11-27T01:30:23.899Z,1015.62
2017-11-27T01:32:25.637Z,1015.68
2017-11-27T01:34:27.241Z,1015.73
2017-11-27T01:36:28.957Z,1015.72
2017-11-27T01:38:31.048Z,1015.65
2017-11-27T01:40:32.839Z,1015.65
2017-11-27T01:42:34.857Z,1015.62
2017-11-27T01:44:36.581Z,1015.55
2017-11-27T01:46:38.308Z,1015.48
2017-11-27T01:48:40.500Z,1015.44
2017-11-27T01:50:42.422Z,1015.51
2017-11-27T01:52:44.274Z,1015.52
2017-11-27T01:54:46.016Z,1015.51
2017-11-27T01:56:48.071Z,1015.43
2017-11-27T01:58:49.768Z,1015.40
2017-11-27T02:00:51.984Z,1015.41
2017-11-27T02:02:53.767Z,1015.41
2017-11-27T02:04:55.466Z,1015.42
2017-11-27T02:07:37.930Z,1015.41
2017-11-27T02:09:39.408Z,1015.47
2017-11-27T02:11:40.853Z,1015.48
2017-11-27T02:13:42.353Z,1015.54
2017-11-27T02:15:43.972Z,1015.43
2017-11-27T02:17:45.753Z,1015.44
2017-11-27T02:19:48.500Z,1015.44
2017-11-27T02:22:32.832Z,1015.35
2017-11-27T02:24:35.426Z,1015.30
2017-11-27T02:26:36.912Z,1015.31
2017-11-27T02:28:38.551Z,1015.23
2017-11-27T02:30:40.178Z,1015.15
2017-11-27T02:32:41.739Z,1015.15
2017-11-27T02:34:43.443Z,1015.06
2017-11-27T02:36:45.194Z,1015.06
2017-11-27T02:39:26.811Z,1015.08
2017-11-27T02:41:29.203Z,1014.99
2017-11-27T02:43:30.606Z,1015.00
2017-11-27T02:45:32.813Z,1014.88
2017-11-27T02:47:35.764Z,1014.86
2017-11-27T02:49:37.752Z,1014.83
2017-11-27T02:51:39.651Z,1014.82
2017-11-27T02:53:41.868Z,1014.83
2017-11-27T02:55:43.703Z,1014.80
2017-11-27T02:57:45.413Z,1014.80
2017-11-27T02:59:47.036Z,1014.79
2017-11-27T03:01:48.842Z,1014.76
2017-11-27T03:03:50.641Z,1014.75
2017-11-27T03:05:52.915Z,1014.66
2017-11-27T03:07:54.601Z,1014.66
2017-11-27T03:09:56.282Z,1014.56
2017-11-27T03:11:58.157Z,1014.55
2017-11-27T03:13:59.900Z,1014.50
2017-11-27T03:16:01.645Z,1014.43
2017-11-27T03:18:03.422Z,1014.46
2017-11-27T03:20:05.161Z,1014.42
2017-11-27T03:22:06.884Z,1014.42
2017-11-27T03:24:09.112Z,1014.37
2017-11-27T03:26:54.198Z,1014.37
2017-11-27T03:28:55.708Z,1014.34
2017-11-27T03:30:57.204Z,1014.31
2017-11-27T03:33:43.380Z,1014.29
2017-11-27T03:35:44.800Z,1014.22
2017-11-27T03:37:46.987Z,1014.19
2017-11-27T03:39:48.829Z,1014.16
2017-11-27T03:41:51.032Z,1014.11
2017-11-27T03:43:53.207Z,1014.07
2017-11-27T03:45:54.992Z,1014.07
2017-11-27T03:47:56.872Z,1014.02
2017-11-27T03:50:38.646Z,1013.94
2017-11-27T03:52:40.115Z,1013.91
2017-11-27T03:54:41.568Z,1013.89
2017-11-27T03:56:44.369Z,1013.87
2017-11-27T03:58:45.838Z,1013.88
2017-11-27T04:00:47.426Z,1013.87
2017-11-27T04:02:49.112Z,1013.87
2017-11-27T04:04:50.828Z,1013.86
2017-11-27T04:06:52.607Z,1013.83
2017-11-27T04:08:54.333Z,1013.77
2017-11-27T04:10:56.396Z,1013.73
2017-11-27T04:12:58.252Z,1013.69
2017-11-27T04:15:40.695Z,1013.61
2017-11-27T04:17:43.398Z,1013.61
2017-11-27T04:19:45.477Z,1013.66
2017-11-27T04:21:47.616Z,1013.56
2017-11-27T04:23:49.332Z,1013.60
2017-11-27T04:25:51.014Z,1013.59
2017-11-27T04:27:53.140Z,1013.57
2017-11-27T04:29:54.830Z,1013.60
2017-11-27T04:31:56.496Z,1013.59
2017-11-27T04:33:58.154Z,1013.55
2017-11-27T04:35:59.881Z,1013.50
2017-11-27T04:38:01.649Z,1013.43
2017-11-27T04:40:03.459Z,1013.48
2017-11-27T04:42:05.243Z,1013.36
2017-11-27T04:44:07.021Z,1013.40
2017-11-27T04:46:50.651Z,1013.39
2017-11-27T04:48:52.976Z,1013.35
2017-11-27T04:50:54.700Z,1013.32
2017-11-27T04:52:56.513Z,1013.32
2017-11-27T04:54:58.366Z,1013.32
2017-11-27T04:57:00.216Z,1013.23
2017-11-27T04:59:02.373Z,1013.21
2017-11-27T05:01:46.754Z,1013.11
2017-11-27T05:03:48.204Z,1013.10
2017-11-27T05:05:49.706Z,1013.10
2017-11-27T05:07:51.225Z,1013.07
2017-11-27T05:09:52.875Z,1012.99
2017-11-27T05:11:54.480Z,1012.92
2017-11-27T05:13:56.175Z,1012.96
2017-11-27T05:15:58.102Z,1012.93
2017-11-27T05:17:59.800Z,1012.89
2017-11-27T05:20:01.590Z,1012.88
2017-11-27T05:22:03.367Z,1012.93
2017-11-27T05:24:05.551Z,1012.80
2017-11-27T05:26:07.292Z,1012.76
2017-11-27T05:28:08.802Z,1012.70
2017-11-27T05:30:10.319Z,1012.64
2017-11-27T05:32:12.099Z,1012.68
2017-11-27T05:34:14.005Z,1012.61
2017-11-27T05:36:15.696Z,1012.61
2017-11-27T05:38:17.395Z,1012.49
2017-11-27T05:40:19.181Z,1012.46
2017-11-27T05:42:20.931Z,1012.44
2017-11-27T05:44:22.664Z,1012.48
2017-11-27T05:46:24.504Z,1012.40
2017-11-27T05:49:07.062Z,1012.34
2017-11-27T05:51:08.513Z,1012.29
2017-11-27T05:53:09.947Z,1012.26
2017-11-27T05:55:12.375Z,1012.29
2017-11-27T05:57:14.104Z,1012.20
2017-11-27T05:59:15.681Z,1012.14
2017-11-27T06:01:17.817Z,1012.14
2017-11-27T06:03:19.451Z,1012.14
2017-11-27T06:06:03.916Z,1012.01
2017-11-27T06:08:05.361Z,1012.09
2017-11-27T06:10:06.982Z,1012.06
2017-11-27T06:12:08.556Z,1011.92
2017-11-27T06:14:10.114Z,1011.97
2017-11-27T06:16:11.939Z,1011.89
2017-11-27T06:18:13.639Z,1011.89
2017-11-27T06:20:15.440Z,1011.83
2017-11-27T06:22:58.703Z,1011.71
2017-11-27T06:25:00.170Z,1011.62
2017-11-27T06:27:02.056Z,1011.62
2017-11-27T06:29:03.452Z,1011.56
2017-11-27T06:31:05.998Z,1011.57
2017-11-27T06:33:07.422Z,1011.47
2017-11-27T06:35:09.041Z,1011.46
2017-11-27T06:37:10.647Z,1011.42
2017-11-27T06:39:12.461Z,1011.36
2017-11-27T06:41:14.293Z,1011.34
2017-11-27T06:43:15.845Z,1011.32
2017-11-27T06:45:17.669Z,1011.28
2017-11-27T06:47:19.737Z,1011.17
2017-11-27T06:49:21.525Z,1011.19
2017-11-27T06:51:23.263Z,1011.14
2017-11-27T06:53:24.870Z,1011.04
2017-11-27T06:55:27.586Z,1011.05
2017-11-27T06:57:29.679Z,1010.94
2017-11-27T06:59:31.364Z,1010.90
2017-11-27T07:01:33.167Z,1010.81
2017-11-27T07:03:34.867Z,1010.82
2017-11-27T07:05:36.647Z,1010.88
2017-11-27T07:07:38.340Z,1010.80
2017-11-27T07:10:20.909Z,1010.70
2017-11-27T07:12:22.387Z,1010.61
2017-11-27T07:14:24.423Z,1010.66
2017-11-27T07:16:26.484Z,1010.59
2017-11-27T07:18:28.053Z,1010.53
2017-11-27T07:20:29.787Z,1010.53
2017-11-27T07:22:31.656Z,1010.46
2017-11-27T07:24:33.832Z,1010.38
2017-11-27T07:26:35.921Z,1010.38
2017-11-27T07:28:37.831Z,1010.37
2017-11-27T07:30:40.194Z,1010.35
2017-11-27T07:32:41.852Z,1010.30
2017-11-27T07:34:43.668Z,1010.26
2017-11-27T07:36:45.386Z,1010.18
2017-11-27T07:38:47.239Z,1010.15
2017-11-27T07:40:49.526Z,1010.22
2017-11-27T07:42:51.238Z,1010.12
2017-11-27T07:44:53.409Z,1010.11
2017-11-27T07:46:55.284Z,1010.03
2017-11-27T07:48:56.776Z,1010.10
2017-11-27T07:50:58.498Z,1009.97
2017-11-27T07:53:00.217Z,1009.96
2017-11-27T07:55:02.071Z,1009.90
2017-11-27T07:57:03.777Z,1009.86
2017-11-27T07:59:05.561Z,1009.70
2017-11-27T08:01:07.352Z,1009.73
2017-11-27T08:03:09.223Z,1009.73
2017-11-27T08:05:11.173Z,1009.69
2017-11-27T08:07:13.449Z,1009.59
2017-11-27T08:09:15.491Z,1009.59
2017-11-27T08:11:58.620Z,1009.49
2017-11-27T08:14:00.190Z,1009.53
2017-11-27T08:16:01.889Z,1009.52
2017-11-27T08:18:03.308Z,1009.36
2017-11-27T08:20:04.816Z,1009.37
2017-11-27T08:22:06.303Z,1009.64
2017-11-27T08:24:07.806Z,1009.35
2017-11-27T08:26:09.450Z,1009.29
2017-11-27T08:28:11.454Z,1009.30
2017-11-27T08:30:12.977Z,1009.28
2017-11-27T08:32:14.552Z,1009.31
2017-11-27T08:34:16.048Z,1009.18
2017-11-27T08:36:17.553Z,1009.11
2017-11-27T08:38:19.232Z,1009.06
2017-11-27T08:40:20.703Z,1008.97
2017-11-27T08:42:22.222Z,1008.90
2017-11-27T08:44:23.800Z,1008.89
2017-11-27T08:46:25.484Z,1008.77
2017-11-27T08:48:27.041Z,1008.80
2017-11-27T08:50:29.538Z,1008.75
2017-11-27T08:52:31.027Z,1008.72
2017-11-27T08:54:32.442Z,1008.73
2017-11-27T08:56:33.924Z,1008.68
2017-11-27T08:58:35.573Z,1008.62
2017-11-27T09:00:37.275Z,1008.63
2017-11-27T09:02:38.813Z,1008.53
2017-11-27T09:04:40.302Z,1008.47
2017-11-27T09:06:41.819Z,1008.49
2017-11-27T09:08:43.366Z,1008.46
2017-11-27T09:10:44.874Z,1008.27
2017-11-27T09:12:46.375Z,1008.33
2017-11-27T09:14:47.862Z,1008.26
2017-11-27T09:16:49.376Z,1008.23
2017-11-27T09:18:51.044Z,1008.08
2017-11-27T09:20:52.773Z,1008.15
2017-11-27T09:22:54.229Z,1008.15
2017-11-27T09:24:55.758Z,1008.14
2017-11-27T09:26:57.255Z,1008.23
2017-11-27T09:28:58.812Z,1008.06
2017-11-27T09:31:00.295Z,1008.03
2017-11-27T09:33:01.836Z,1008.00
2017-11-27T09:35:04.065Z,1007.77
2017-11-27T09:37:06.192Z,1007.95
2017-11-27T09:39:07.909Z,1007.85
2017-11-27T09:41:10.503Z,1007.83
2017-11-27T09:43:12.331Z,1007.77
2017-11-27T09:45:14.150Z,1007.59
2017-11-27T09:47:15.786Z,1007.55
2017-11-27T09:49:17.666Z,1007.47
2017-11-27T09:51:20.123Z,1007.40
2017-11-27T09:53:22.372Z,1007.30
2017-11-27T09:55:24.239Z,1007.30
2017-11-27T09:57:26.045Z,1007.20
2017-11-27T09:59:28.120Z,1007.15
2017-11-27T10:01:29.938Z,1007.08
2017-11-27T10:03:31.450Z,1007.02
2017-11-27T10:05:32.964Z,1006.97
2017-11-27T10:07:35.129Z,1006.89
2017-11-27T10:09:37.065Z,1006.99
2017-11-27T10:11:38.790Z,1006.81
2017-11-27T10:13:40.588Z,1006.73
2017-11-27T10:15:42.331Z,1006.70
2017-11-27T10:17:44.132Z,1006.72
2017-11-27T10:19:45.939Z,1006.49
2017-11-27T10:21:47.657Z,1006.57
2017-11-27T10:23:49.267Z,1006.66
2017-11-27T10:25:50.719Z,1006.41
2017-11-27T10:27:52.233Z,1006.45
2017-11-27T10:29:53.750Z,1006.50
2017-11-27T10:31:55.269Z,1006.50
2017-11-27T10:33:56.814Z,1006.40
2017-11-27T10:35:58.340Z,1006.17
2017-11-27T10:37:59.831Z,1006.30
2017-11-27T10:40:01.318Z,1006.27
2017-11-27T10:42:02.808Z,1006.08
2017-11-27T10:44:04.319Z,1006.13
2017-11-27T10:46:05.823Z,1006.04
2017-11-27T10:48:07.385Z,1005.98
2017-11-27T10:50:08.871Z,1005.91
2017-11-27T10:52:10.369Z,1005.93
2017-11-27T10:54:11.864Z,1005.90
2017-11-27T10:56:13.310Z,1005.82
2017-11-27T10:58:14.848Z,1005.87
2017-11-27T11:00:16.311Z,1005.82
2017-11-27T11:02:17.954Z,1005.85
2017-11-27T11:04:19.658Z,1005.80
2017-11-27T11:06:21.153Z,1005.75
2017-11-27T11:08:22.670Z,1005.61
2017-11-27T11:10:24.218Z,1005.61
2017-11-27T11:12:25.933Z,1005.50
2017-11-27T11:14:27.590Z,1005.48
2017-11-27T11:16:29.220Z,1005.53
2017-11-27T11:18:30.729Z,1005.42
2017-11-27T11:20:32.205Z,1005.41
2017-11-27T11:23:14.606Z,1005.26
2017-11-27T11:25:16.427Z,1005.30
2017-11-27T11:27:17.850Z,1005.24
2017-11-27T11:29:19.353Z,1005.22
2017-11-27T11:31:20.766Z,1005.11
2017-11-27T11:33:22.175Z,1005.16
2017-11-27T11:35:23.632Z,1005.06
2017-11-27T11:38:05.265Z,1005.00
2017-11-27T11:40:06.798Z,1005.00
2017-11-27T11:42:08.212Z,1005.01
2017-11-27T11:44:10.623Z,1004.91
2017-11-27T11:46:11.940Z,1004.93
2017-11-27T11:48:13.595Z,1004.84
2017-11-27T11:50:15.211Z,1004.73
2017-11-27T11:52:17.243Z,1004.83
2017-11-27T11:54:18.972Z,1004.71
2017-11-27T11:56:20.549Z,1004.70
2017-11-27T11:59:06.856Z,1004.64
2017-11-27T12:01:08.272Z,1004.73
2017-11-27T12:03:09.815Z,1004.70
2017-11-27T12:05:11.708Z,1004.75
2017-11-27T12:07:13.478Z,1004.71
2017-11-27T12:09:15.437Z,1004.69
2017-11-27T12:11:17.312Z,1004.67
2017-11-27T12:13:19.117Z,1004.69
2017-11-27T12:16:07.629Z,1004.66
2017-11-27T12:18:09.148Z,1004.55
2017-11-27T12:20:11.051Z,1004.64
2017-11-27T12:22:12.978Z,1004.51
2017-11-27T12:24:14.805Z,1004.54
2017-11-27T12:26:16.586Z,1004.48
2017-11-27T12:28:18.514Z,1004.47
2017-11-27T12:30:20.068Z,1004.48
2017-11-27T12:32:21.615Z,1004.45
2017-11-27T12:34:23.435Z,1004.36
2017-11-27T12:36:25.064Z,1004.39
2017-11-27T12:38:26.613Z,1004.29
2017-11-27T12:40:28.110Z,1004.22
2017-11-27T12:42:29.848Z,1004.21
2017-11-27T12:44:31.575Z,1004.11
2017-11-27T12:46:33.390Z,1004.22
2017-11-27T12:48:35.304Z,1004.12
2017-11-27T12:50:37.204Z,1004.08
2017-11-27T12:52:39.129Z,1004.08
2017-11-27T12:54:41.005Z,1004.04
2017-11-27T12:56:42.883Z,1004.00
2017-11-27T12:58:44.735Z,1004.05
2017-11-27T13:00:46.549Z,1003.98
2017-11-27T13:02:48.349Z,1003.91
2017-11-27T13:04:50.225Z,1003.88
2017-11-27T13:06:52.156Z,1003.78
2017-11-27T13:08:54.017Z,1003.78
2017-11-27T13:10:55.578Z,1003.65
2017-11-27T13:12:57.093Z,1003.63
2017-11-27T13:14:58.905Z,1003.66
2017-11-27T13:17:00.728Z,1003.60
2017-11-27T13:19:43.762Z,1003.48
2017-11-27T13:21:45.176Z,1003.55
2017-11-27T13:23:46.902Z,1003.47
2017-11-27T13:25:48.541Z,1003.42
2017-11-27T13:27:50.103Z,1003.38
2017-11-27T13:29:51.588Z,1003.27
2017-11-27T13:31:53.189Z,1003.31
2017-11-27T13:34:39.455Z,1003.22
2017-11-27T13:36:41.453Z,1003.23
2017-11-27T13:38:43.066Z,1003.21
2017-11-27T13:40:44.691Z,1003.24
2017-11-27T13:42:46.265Z,1003.20
2017-11-27T13:44:47.853Z,1003.21
2017-11-27T13:46:49.380Z,1003.15
2017-11-27T13:48:51.232Z,1003.16
2017-11-27T13:51:34.085Z,1003.14
2017-11-27T13:53:35.842Z,1003.11
2017-11-27T13:55:37.831Z,1003.08
2017-11-27T13:57:39.212Z,1003.11
2017-11-27T13:59:40.733Z,1003.06
2017-11-27T14:01:42.589Z,1003.08
2017-11-27T14:03:44.376Z,1003.06
2017-11-27T14:05:46.342Z,1002.99
2017-11-27T14:07:48.158Z,1002.96
2017-11-27T14:09:50.009Z,1002.97
2017-11-27T14:11:51.694Z,1002.97
2017-11-27T14:13:53.203Z,1002.95
2017-11-27T14:15:55.036Z,1002.95
2017-11-27T14:17:56.540Z,1002.88
2017-11-27T14:19:58.349Z,1002.86
2017-11-27T14:22:00.196Z,1002.89
2017-11-27T14:24:01.993Z,1002.88
2017-11-27T14:26:03.814Z,1002.82
2017-11-27T14:28:05.691Z,1002.78
2017-11-27T14:30:07.410Z,1002.85
2017-11-27T14:32:09.119Z,1002.83
2017-11-27T14:34:10.658Z,1002.80
2017-11-27T14:36:12.184Z,1002.79
2017-11-27T14:38:13.694Z,1002.76
2017-11-27T14:40:15.634Z,1002.69
2017-11-27T14:42:17.487Z,1002.64
2017-11-27T14:44:19.349Z,1002.64
2017-11-27T14:46:21.323Z,1002.63
2017-11-27T14:48:23.344Z,1002.67
2017-11-27T14:50:25.150Z,1002.57
2017-11-27T14:52:26.870Z,1002.52
2017-11-27T14:54:28.683Z,1002.54
2017-11-27T14:56:30.240Z,1002.53
2017-11-27T14:58:31.756Z,1002.58
2017-11-27T15:00:33.263Z,1002.60
2017-11-27T15:02:34.782Z,1002.63
2017-11-27T15:04:36.389Z,1002.58
2017-11-27T15:06:38.180Z,1002.54
2017-11-27T15:08:40.020Z,1002.58
2017-11-27T15:10:41.755Z,1002.56
2017-11-27T15:12:43.617Z,1002.52
2017-11-27T15:14:45.475Z,1002.55
2017-11-27T15:16:47.333Z,1002.53
2017-11-27T15:18:49.122Z,1002.49
2017-11-27T15:20:51.128Z,1002.39
2017-11-27T15:22:52.929Z,1002.45
2017-11-27T15:24:54.780Z,1002.38
2017-11-27T15:27:37.565Z,1002.41
2017-11-27T15:29:39.779Z,1002.42
2017-11-27T15:31:41.403Z,1002.38
2017-11-27T15:33:43.326Z,1002.40
2017-11-27T15:35:45.162Z,1002.38
2017-11-27T15:37:47.006Z,1002.37
2017-11-27T15:39:48.455Z,1002.28
2017-11-27T15:41:50.234Z,1002.30
2017-11-27T15:43:52.004Z,1002.28
2017-11-27T15:45:53.759Z,1002.26
2017-11-27T15:47:55.308Z,1002.24
2017-11-27T15:49:56.995Z,1002.18
2017-11-27T15:51:58.737Z,1002.15
2017-11-27T15:54:00.629Z,1002.16
2017-11-27T15:56:02.333Z,1002.15
2017-11-27T15:58:03.973Z,1002.07
2017-11-27T16:00:05.592Z,1002.11
2017-11-27T16:02:07.251Z,1002.08
2017-11-27T16:04:08.794Z,1002.06
2017-11-27T16:06:10.323Z,1002.02
2017-11-27T16:08:11.935Z,1001.95
2017-11-27T16:10:13.436Z,1001.99
2017-11-27T16:12:15.356Z,1001.92
2017-11-27T16:14:17.101Z,1001.94
2017-11-27T16:16:19.035Z,1001.91
2017-11-27T16:18:20.866Z,1001.94
2017-11-27T16:20:22.427Z,1001.84
2017-11-27T16:22:23.965Z,1001.84
2017-11-27T16:24:25.481Z,1001.77
2017-11-27T16:26:27.026Z,1001.81
2017-11-27T16:28:28.579Z,1001.80
2017-11-27T16:30:30.129Z,1001.78
2017-11-27T16:32:31.642Z,1001.74
2017-11-27T16:34:33.435Z,1001.77
2017-11-27T16:36:35.147Z,1001.74
2017-11-27T16:38:36.929Z,1001.72
2017-11-27T16:40:38.469Z,1001.71
2017-11-27T16:42:39.966Z,1001.66
2017-11-27T16:45:22.366Z,1001.66
2017-11-27T16:47:23.779Z,1001.64
2017-11-27T16:49:25.198Z,1001.67
2017-11-27T16:51:26.695Z,1001.74
2017-11-27T16:53:28.267Z,1001.77
2017-11-27T16:55:29.935Z,1001.79
2017-11-27T16:57:31.639Z,1001.81
2017-11-27T16:59:33.232Z,1001.81
2017-11-27T17:02:15.879Z,1001.79
2017-11-27T17:04:18.063Z,1001.73
2017-11-27T17:06:19.540Z,1001.71
2017-11-27T17:08:21.015Z,1001.66
2017-11-27T17:10:22.496Z,1001.66
2017-11-27T17:12:24.059Z,1001.66
2017-11-27T17:14:25.795Z,1001.65
2017-11-27T17:16:27.582Z,1001.61
2017-11-27T17:18:29.448Z,1001.62
2017-11-27T17:20:31.261Z,1001.66
2017-11-27T17:22:32.803Z,1001.60
2017-11-27T17:24:34.344Z,1001.56
2017-11-27T17:26:36.110Z,1001.51
2017-11-27T17:28:37.893Z,1001.49
2017-11-27T17:30:40.219Z,1001.46
2017-11-27T17:32:42.073Z,1001.34
2017-11-27T17:34:43.592Z,1001.29
2017-11-27T17:36:45.409Z,1001.20
2017-11-27T17:38:47.166Z,1001.19
2017-11-27T17:40:48.659Z,1001.16
2017-11-27T17:42:50.196Z,1001.11
2017-11-27T17:44:51.743Z,1001.12
2017-11-27T17:46:53.250Z,1001.11
2017-11-27T17:48:54.736Z,1001.10
2017-11-27T17:50:56.230Z,1001.11
2017-11-27T17:52:57.804Z,1001.15
2017-11-27T17:54:59.672Z,1001.05
2017-11-27T17:57:01.428Z,1001.06
2017-11-27T17:59:03.281Z,1001.06
2017-11-27T18:01:04.984Z,1001.05
2017-11-27T18:03:06.781Z,1001.02
2017-11-27T18:05:55.010Z,1001.07
2017-11-27T18:07:58.318Z,1001.10
2017-11-27T18:10:00.073Z,1001.02
2017-11-27T18:12:01.930Z,1001.02
2017-11-27T18:14:03.736Z,1001.00
2017-11-27T18:16:05.489Z,1000.98
2017-11-27T18:18:07.244Z,1000.93
2017-11-27T18:20:49.891Z,1000.95
2017-11-27T18:22:51.426Z,1000.92
2017-11-27T18:24:53.711Z,1000.86
2017-11-27T18:26:55.415Z,1000.83
2017-11-27T18:28:57.076Z,1000.82
2017-11-27T18:30:58.867Z,1000.77
2017-11-27T18:33:00.887Z,1000.73
2017-11-27T18:35:02.688Z,1000.81
2017-11-27T18:37:46.035Z,1000.86
2017-11-27T18:39:50.144Z,1000.92
2017-11-27T18:41:51.876Z,1000.91
2017-11-27T18:43:53.552Z,1000.93
2017-11-27T18:45:55.217Z,1001.04
2017-11-27T18:47:56.843Z,1001.07
2017-11-27T18:49:58.451Z,1001.09
2017-11-27T18:52:00.966Z,1001.11
2017-11-27T18:54:02.691Z,1001.09
2017-11-27T18:56:04.192Z,1001.00
2017-11-27T18:58:05.898Z,1000.98
2017-11-27T19:00:07.422Z,1000.99
2017-11-27T19:02:08.970Z,1000.93
2017-11-27T19:04:12.040Z,1000.91
2017-11-27T19:06:13.899Z,1000.80
2017-11-27T19:08:15.625Z,1000.80
2017-11-27T19:10:17.404Z,1000.82
2017-11-27T19:12:19.268Z,1000.88
2017-11-27T19:14:20.969Z,1000.80
2017-11-27T19:16:22.724Z,1000.78
2017-11-27T19:18:24.260Z,1000.74
2017-11-27T19:20:25.796Z,1000.78
2017-11-27T19:22:27.659Z,1000.83
2017-11-27T19:24:29.416Z,1000.78
2017-11-27T19:26:31.156Z,1000.78
2017-11-27T19:28:32.968Z,1000.83
2017-11-27T19:30:34.602Z,1000.81
2017-11-27T19:32:36.149Z,1000.81
2017-11-27T19:34:37.653Z,1000.78
2017-11-27T19:36:39.160Z,1000.69
2017-11-27T19:38:40.691Z,1000.72
2017-11-27T19:41:23.105Z,1000.70
2017-11-27T19:43:24.641Z,1000.73
2017-11-27T19:45:26.165Z,1000.67
2017-11-27T19:47:27.561Z,1000.73
2017-11-27T19:49:29.028Z,1000.67
2017-11-27T19:51:30.758Z,1000.71
2017-11-27T19:53:32.336Z,1000.73
2017-11-27T19:55:34.150Z,1000.76
2017-11-27T19:58:20.339Z,1000.75
2017-11-27T20:00:22.537Z,1000.68
2017-11-27T20:02:24.163Z,1000.67
2017-11-27T20:04:25.724Z,1000.70
2017-11-27T20:06:27.475Z,1000.62
2017-11-27T20:08:28.994Z,1000.63
2017-11-27T20:10:30.594Z,1000.63
2017-11-27T20:13:13.420Z,1000.59
2017-11-27T20:15:14.826Z,1000.53
2017-11-27T20:17:18.646Z,1000.56
2017-11-27T20:19:20.076Z,1000.59
2017-11-27T20:21:21.660Z,1000.61
2017-11-27T20:23:23.390Z,1000.55
2017-11-27T20:25:25.228Z,1000.57
2017-11-27T20:27:27.025Z,1000.54
2017-11-27T20:29:28.673Z,1000.63
2017-11-27T20:31:30.222Z,1000.59
2017-11-27T20:33:31.716Z,1000.59
2017-11-27T20:35:33.266Z,1000.66
2017-11-27T20:37:35.096Z,1000.62
2017-11-27T20:39:36.590Z,1000.50
2017-11-27T20:41:38.009Z,1000.49
2017-11-27T20:43:39.655Z,1000.46
2017-11-27T20:45:41.371Z,1000.51
2017-11-27T20:47:43.117Z,1000.49
2017-11-27T20:49:44.932Z,1000.48
2017-11-27T20:51:46.637Z,1000.47
2017-11-27T20:53:48.467Z,1000.44
2017-11-27T20:55:50.291Z,1000.46
2017-11-27T20:57:51.842Z,1000.44
2017-11-27T20:59:53.428Z,1000.46
2017-11-27T21:01:54.898Z,1000.50
2017-11-27T21:03:56.409Z,1000.43
2017-11-27T21:05:57.900Z,1000.47
2017-11-27T21:07:59.433Z,1000.49
2017-11-27T21:10:01.200Z,1000.42
2017-11-27T21:12:03.009Z,1000.45
2017-11-27T21:14:04.660Z,1000.49
2017-11-27T21:16:06.169Z,1000.45
2017-11-27T21:18:07.725Z,1000.37
2017-11-27T21:20:09.259Z,1000.39
2017-11-27T21:22:10.828Z,1000.31
2017-11-27T21:24:12.665Z,1000.35
2017-11-27T21:26:14.486Z,1000.26
2017-11-27T21:28:16.265Z,1000.32
2017-11-27T21:30:19.004Z,1000.38
2017-11-27T21:32:20.741Z,1000.38
2017-11-27T21:34:24.065Z,1000.39
2017-11-27T21:36:25.285Z,1000.37
2017-11-27T21:38:27.041Z,1000.34
2017-11-27T21:40:28.734Z,1000.25
2017-11-27T21:42:30.571Z,1000.21
2017-11-27T21:44:32.408Z,1000.09
2017-11-27T21:46:34.296Z,1000.20
2017-11-27T21:49:19.188Z,1000.27
2017-11-27T21:51:20.827Z,1000.30
2017-11-27T21:53:22.574Z,1000.29
2017-11-27T21:55:25.511Z,1000.32
2017-11-27T21:57:27.261Z,1000.42
2017-11-27T21:59:29.046Z,1000.41
2017-11-27T22:01:30.943Z,1000.50
2017-11-27T22:03:32.623Z,1000.42
2017-11-27T22:05:34.675Z,1000.43
2017-11-27T22:07:36.539Z,1000.37
2017-11-27T22:09:38.358Z,1000.37
2017-11-27T22:11:40.063Z,1000.34
2017-11-27T22:13:41.826Z,1000.32
2017-11-27T22:15:43.330Z,1000.21
2017-11-27T22:17:45.106Z,1000.22
2017-11-27T22:19:47.168Z,1000.21
2017-11-27T22:21:49.386Z,1000.21
2017-11-27T22:23:51.387Z,1000.20
2017-11-27T22:25:53.470Z,1000.18
2017-11-27T22:27:56.075Z,1000.18
2017-11-27T22:29:59.601Z,1000.16
2017-11-27T22:32:01.471Z,1000.10
2017-11-27T22:34:03.043Z,1000.04
2017-11-27T22:36:04.839Z,1000.01
2017-11-27T22:38:06.613Z,1000.04
2017-11-27T22:40:08.498Z,1000.02
2017-11-27T22:42:11.046Z,1000.05
2017-11-27T22:44:12.753Z,1000.04
2017-11-27T22:46:14.591Z,999.89
2017-11-27T22:48:17.176Z,1000.00
2017-11-27T22:50:18.761Z,999.91
2017-11-27T22:52:20.368Z,999.85
2017-11-27T22:54:22.090Z,999.90
2017-11-27T22:56:23.837Z,999.84
2017-11-27T22:58:26.354Z,999.86
2017-11-27T23:00:28.093Z,999.87
2017-11-27T23:02:29.830Z,999.85
2017-11-27T23:04:31.629Z,999.85
2017-11-27T23:06:33.488Z,999.88
2017-11-27T23:08:35.042Z,999.84
2017-11-27T23:10:36.707Z,999.81
2017-11-27T23:12:38.341Z,999.76
2017-11-27T23:14:39.900Z,999.76
2017-11-27T23:16:41.428Z,999.74
2017-11-27T23:18:43.278Z,999.65
2017-11-27T23:20:45.259Z,999.57
2017-11-27T23:23:30.595Z,999.57
2017-11-27T23:25:32.170Z,999.52
2017-11-27T23:27:34.001Z,999.51
2017-11-27T23:29:36.575Z,999.52
2017-11-27T23:31:38.077Z,999.54
2017-11-27T23:33:39.548Z,999.51
2017-11-27T23:35:41.434Z,999.45
2017-11-27T23:37:42.987Z,999.42
2017-11-27T23:39:44.689Z,999.49
2017-11-27T23:41:46.444Z,999.50
2017-11-27T23:43:48.157Z,999.47
2017-11-27T23:45:50.115Z,999.50
2017-11-27T23:47:51.612Z,999.51
2017-11-27T23:49:53.086Z,999.55
2017-11-27T23:51:54.586Z,999.57
2017-11-27T23:53:56.380Z,999.56
2017-11-27T23:56:39.058Z,999.54
2017-11-27T23:58:40.565Z,999.52
